Terminal Aerodrome Forecast
Issued by NWS Wichita, KS

Home | Current Version | Previous Version | Graphics & Text | Print | Product List | Glossary On
Versions: 1 2 3 4 5 6 7 8 9 10 11 12 13 14 15 16 17 18 19 20 21 22 23 24
590
FTUS43 KICT 240830 AAB
TAFICT
TAF AMD
KICT 240830Z 2409/2506 04008KT 2SM -DZ SCT003 OVC005
      TEMPO 2409/2413 1SM -DZ OVC003
     FM241800 29009KT 5SM BR SCT005 BKN009
     FM242000 29014KT P6SM SCT009 BKN015
     FM242200 29014KT P6SM SCT030=

USA.gov is the U.S. government's official web portal to all federal, state and local government web resources and services.